sensor_id;sensor_type;location;lat;lon;timestamp;pressure;altitude;pressure_sealevel;temperature;humidity
18784;BME280;9520;50.954;6.968;2023-03-14T00:00:05;98599.81;;;19.22;41.29
18784;BME280;9520;50.954;6.968;2023-03-14T00:00:27;98593.59;;;19.22;41.27
18784;BME280;9520;50.954;6.968;2023-03-14T00:00:48;98595.31;;;19.23;41.24
18784;BME280;9520;50.954;6.968;2023-03-14T00:01:13;98597.81;;;19.24;41.22
18784;BME280;9520;50.954;6.968;2023-03-14T00:01:35;98602.34;;;19.24;41.14
18784;BME280;9520;50.954;6.968;2023-03-14T00:01:57;98599.69;;;19.24;41.21
18784;BME280;9520;50.954;6.968;2023-03-14T00:02:19;98602.19;;;19.25;41.16
18784;BME280;9520;50.954;6.968;2023-03-14T00:02:42;98596.75;;;19.27;41.23
18784;BME280;9520;50.954;6.968;2023-03-14T00:03:05;98600.50;;;19.24;41.10
18784;BME280;9520;50.954;6.968;2023-03-14T00:03:28;98595.53;;;19.20;41.14
18784;BME280;9520;50.954;6.968;2023-03-14T00:03:50;98602.59;;;19.21;41.16
18784;BME280;9520;50.954;6.968;2023-03-14T00:04:11;98602.34;;;19.24;41.28
18784;BME280;9520;50.954;6.968;2023-03-14T00:04:34;98589.50;;;19.18;41.43
18784;BME280;9520;50.954;6.968;2023-03-14T00:04:56;98606.84;;;19.23;41.30
18784;BME280;9520;50.954;6.968;2023-03-14T00:05:17;98594.00;;;19.17;41.31
18784;BME280;9520;50.954;6.968;2023-03-14T00:05:40;98602.72;;;19.19;41.26
18784;BME280;9520;50.954;6.968;2023-03-14T00:06:02;98605.75;;;19.15;41.23
18784;BME280;9520;50.954;6.968;2023-03-14T00:06:25;98581.41;;;19.08;41.29
18784;BME280;9520;50.954;6.968;2023-03-14T00:06:49;98590.00;;;19.12;41.18
18784;BME280;9520;50.954;6.968;2023-03-14T00:07:11;98599.44;;;19.16;41.28
18784;BME280;9520;50.954;6.968;2023-03-14T00:07:34;98596.53;;;19.19;41.24
18784;BME280;9520;50.954;6.968;2023-03-14T00:07:57;98589.34;;;19.19;41.13
18784;BME280;9520;50.954;6.968;2023-03-14T00:08:19;98582.91;;;19.22;41.14
18784;BME280;9520;50.954;6.968;2023-03-14T00:08:43;98584.63;;;19.23;41.11
18784;BME280;9520;50.954;6.968;2023-03-14T00:09:07;98584.63;;;19.23;41.16
18784;BME280;9520;50.954;6.968;2023-03-14T00:09:29;98584.63;;;19.23;41.17
18784;BME280;9520;50.954;6.968;2023-03-14T00:09:51;98586.31;;;19.24;41.20
18784;BME280;9520;50.954;6.968;2023-03-14T00:10:14;98590.19;;;19.20;41.27
18784;BME280;9520;50.954;6.968;2023-03-14T00:10:36;98594.56;;;19.21;41.19
18784;BME280;9520;50.954;6.968;2023-03-14T00:11:04;98593.88;;;19.19;41.06
18784;BME280;9520;50.954;6.968;2023-03-14T00:11:26;98582.50;;;19.06;41.13
18784;BME280;9520;50.954;6.968;2023-03-14T00:11:48;98592.56;;;19.13;41.12
18784;BME280;9520;50.954;6.968;2023-03-14T00:12:10;98600.69;;;19.12;41.40
18784;BME280;9520;50.954;6.968;2023-03-14T00:12:32;98601.53;;;19.12;41.29
18784;BME280;9520;50.954;6.968;2023-03-14T00:12:54;98603.38;;;19.12;41.34
18784;BME280;9520;50.954;6.968;2023-03-14T00:13:16;98602.41;;;19.13;41.21
18784;BME280;9520;50.954;6.968;2023-03-14T00:13:38;98606.16;;;19.10;41.35
18784;BME280;9520;50.954;6.968;2023-03-14T00:14:00;98608.81;;;19.10;41.20
18784;BME280;9520;50.954;6.968;2023-03-14T00:14:24;98609.81;;;19.09;41.14
18784;BME280;9520;50.954;6.968;2023-03-14T00:14:46;98612.63;;;19.08;41.24
18784;BME280;9520;50.954;6.968;2023-03-14T00:15:08;98622.44;;;19.07;41.39
18784;BME280;9520;50.954;6.968;2023-03-14T00:15:32;98623.88;;;19.11;41.27
18784;BME280;9520;50.954;6.968;2023-03-14T00:15:54;98633.50;;;19.14;41.22
18784;BME280;9520;50.954;6.968;2023-03-14T00:16:17;98621.88;;;19.04;41.33
18784;BME280;9520;50.954;6.968;2023-03-14T00:16:38;98625.03;;;18.97;41.38
18784;BME280;9520;50.954;6.968;2023-03-14T00:17:00;98636.19;;;19.03;41.42
18784;BME280;9520;50.954;6.968;2023-03-14T00:17:23;98638.59;;;19.06;41.30
18784;BME280;9520;50.954;6.968;2023-03-14T00:17:46;98634.59;;;19.00;41.30
18784;BME280;9520;50.954;6.968;2023-03-14T00:18:08;98648.59;;;19.04;41.28
18784;BME280;9520;50.954;6.968;2023-03-14T00:18:30;98645.66;;;19.07;41.30
18784;BME280;9520;50.954;6.968;2023-03-14T00:18:52;98644.09;;;19.04;41.17
18784;BME280;9520;50.954;6.968;2023-03-14T00:19:14;98648.31;;;19.07;41.33
18784;BME280;9520;50.954;6.968;2023-03-14T00:19:36;98652.69;;;19.08;41.26
18784;BME280;9520;50.954;6.968;2023-03-14T00:19:58;98638.13;;;19.01;41.21
18784;BME280;9520;50.954;6.968;2023-03-14T00:20:25;98652.94;;;19.05;41.39
18784;BME280;9520;50.954;6.968;2023-03-14T00:20:47;98647.47;;;19.06;41.43
18784;BME280;9520;50.954;6.968;2023-03-14T00:21:10;98659.59;;;19.10;41.43
18784;BME280;9520;50.954;6.968;2023-03-14T00:21:32;98658.03;;;19.08;41.34
18784;BME280;9520;50.954;6.968;2023-03-14T00:21:54;98657.06;;;19.09;41.35
18784;BME280;9520;50.954;6.968;2023-03-14T00:22:16;98648.06;;;19.10;41.30
18784;BME280;9520;50.954;6.968;2023-03-14T00:22:38;98646.38;;;19.09;41.42
18784;BME280;9520;50.954;6.968;2023-03-14T00:23:00;98657.06;;;19.09;41.15
18784;BME280;9520;50.954;6.968;2023-03-14T00:23:23;98652.44;;;19.11;41.25
18784;BME280;9520;50.954;6.968;2023-03-14T00:23:45;98652.44;;;19.11;41.31
18784;BME280;9520;50.954;6.968;2023-03-14T00:24:07;98643.72;;;19.09;41.11
18784;BME280;9520;50.954;6.968;2023-03-14T00:24:29;98644.41;;;19.11;41.35
18784;BME280;9520;50.954;6.968;2023-03-14T00:24:52;98649.66;;;19.12;41.12
18784;BME280;9520;50.954;6.968;2023-03-14T00:25:13;98647.81;;;19.13;41.42
18784;BME280;9520;50.954;6.968;2023-03-14T00:25:35;98643.25;;;19.04;41.62
18784;BME280;9520;50.954;6.968;2023-03-14T00:25:58;98642.84;;;19.08;41.75
18784;BME280;9520;50.954;6.968;2023-03-14T00:26:21;98635.94;;;19.06;41.28
18784;BME280;9520;50.954;6.968;2023-03-14T00:26:43;98636.66;;;19.08;41.23
18784;BME280;9520;50.954;6.968;2023-03-14T00:27:05;98635.81;;;19.07;41.37
18784;BME280;9520;50.954;6.968;2023-03-14T00:27:27;98641.16;;;19.07;41.36
18784;BME280;9520;50.954;6.968;2023-03-14T00:27:50;98646.50;;;19.07;41.33
18784;BME280;9520;50.954;6.968;2023-03-14T00:28:12;98642.97;;;19.07;41.23
18784;BME280;9520;50.954;6.968;2023-03-14T00:28:35;98630.84;;;19.03;41.35
18784;BME280;9520;50.954;6.968;2023-03-14T00:28:57;98642.97;;;19.07;41.32
18784;BME280;9520;50.954;6.968;2023-03-14T00:29:19;98639.56;;;19.05;41.34
18784;BME280;9520;50.954;6.968;2023-03-14T00:29:43;98626.97;;;18.95;41.24
18784;BME280;9520;50.954;6.968;2023-03-14T00:30:08;98647.47;;;19.06;41.28
18784;BME280;9520;50.954;6.968;2023-03-14T00:30:30;98645.53;;;19.08;41.42
18784;BME280;9520;50.954;6.968;2023-03-14T00:30:52;98647.25;;;19.09;41.25
18784;BME280;9520;50.954;6.968;2023-03-14T00:31:15;98648.31;;;19.07;41.36
18784;BME280;9520;50.954;6.968;2023-03-14T00:31:38;98646.38;;;19.09;41.42
18784;BME280;9520;50.954;6.968;2023-03-14T00:32:03;98644.91;;;19.05;41.25
18784;BME280;9520;50.954;6.968;2023-03-14T00:32:26;98649.75;;;19.11;41.22
18784;BME280;9520;50.954;6.968;2023-03-14T00:32:49;98648.06;;;19.10;41.21
18784;BME280;9520;50.954;6.968;2023-03-14T00:33:10;98646.97;;;19.12;41.20
18784;BME280;9520;50.954;6.968;2023-03-14T00:33:35;98646.22;;;19.10;41.11
18784;BME280;9520;50.954;6.968;2023-03-14T00:33:57;98648.78;;;19.12;41.17
18784;BME280;9520;50.954;6.968;2023-03-14T00:34:19;98649.19;;;19.07;41.24
18784;BME280;9520;50.954;6.968;2023-03-14T00:34:40;98648.06;;;19.10;41.21
18784;BME280;9520;50.954;6.968;2023-03-14T00:35:03;98650.53;;;19.02;41.33
18784;BME280;9520;50.954;6.968;2023-03-14T00:35:25;98645.44;;;18.98;41.35
18784;BME280;9520;50.954;6.968;2023-03-14T00:35:55;98633.44;;;18.93;41.38
18784;BME280;9520;50.954;6.968;2023-03-14T00:36:17;98639.25;;;18.98;41.45
18784;BME280;9520;50.954;6.968;2023-03-14T00:36:41;98640.09;;;18.98;41.49
18784;BME280;9520;50.954;6.968;2023-03-14T00:37:03;98647.25;;;18.98;41.38
18784;BME280;9520;50.954;6.968;2023-03-14T00:37:24;98631.63;;;18.93;41.46
18784;BME280;9520;50.954;6.968;2023-03-14T00:37:46;98631.03;;;18.79;41.96
18784;BME280;9520;50.954;6.968;2023-03-14T00:38:11;98632.28;;;18.64;42.06
18784;BME280;9520;50.954;6.968;2023-03-14T00:38:33;98628.50;;;18.66;41.85
18784;BME280;9520;50.954;6.968;2023-03-14T00:38:54;98633.72;;;18.68;41.86
18784;BME280;9520;50.954;6.968;2023-03-14T00:39:16;98631.66;;;18.71;41.74
18784;BME280;9520;50.954;6.968;2023-03-14T00:39:38;98635.91;;;18.74;41.68
18784;BME280;9520;50.954;6.968;2023-03-14T00:40:07;98627.91;;;18.74;41.67
18784;BME280;9520;50.954;6.968;2023-03-14T00:40:32;98632.63;;;18.70;41.75
18784;BME280;9520;50.954;6.968;2023-03-14T00:40:55;98631.78;;;18.70;41.75
18784;BME280;9520;50.954;6.968;2023-03-14T00:41:19;98625.72;;;18.68;41.73
18784;BME280;9520;50.954;6.968;2023-03-14T00:41:43;98633.84;;;18.66;41.81
18784;BME280;9520;50.954;6.968;2023-03-14T00:42:05;98640.53;;;18.61;41.77
18784;BME280;9520;50.954;6.968;2023-03-14T00:42:26;98642.22;;;18.62;41.87
18784;BME280;9520;50.954;6.968;2023-03-14T00:42:48;98631.44;;;18.63;41.96
18784;BME280;9520;50.954;6.968;2023-03-14T00:43:11;98647.94;;;18.68;41.89
18784;BME280;9520;50.954;6.968;2023-03-14T00:43:33;98634.09;;;18.74;41.77
18784;BME280;9520;50.954;6.968;2023-03-14T00:43:54;98641.59;;;18.80;41.71
18784;BME280;9520;50.954;6.968;2023-03-14T00:44:16;98633.47;;;18.82;41.66
18784;BME280;9520;50.954;6.968;2023-03-14T00:44:38;98632.50;;;18.83;41.54
18784;BME280;9520;50.954;6.968;2023-03-14T00:45:01;98629.06;;;18.81;41.50
18784;BME280;9520;50.954;6.968;2023-03-14T00:45:22;98632.09;;;18.87;41.52
18784;BME280;9520;50.954;6.968;2023-03-14T00:45:44;98627.50;;;18.89;41.45
18784;BME280;9520;50.954;6.968;2023-03-14T00:46:06;98625.41;;;18.93;41.19
18784;BME280;9520;50.954;6.968;2023-03-14T00:46:28;98630.63;;;18.94;41.47
18784;BME280;9520;50.954;6.968;2023-03-14T00:46:51;98611.81;;;18.85;41.62
18784;BME280;9520;50.954;6.968;2023-03-14T00:47:13;98626.59;;;19.00;41.47
18784;BME280;9520;50.954;6.968;2023-03-14T00:47:37;98625.75;;;18.99;41.47
18784;BME280;9520;50.954;6.968;2023-03-14T00:48:00;98623.69;;;19.03;41.46
18784;BME280;9520;50.954;6.968;2023-03-14T00:48:22;98592.50;;;18.92;41.20
18784;BME280;9520;50.954;6.968;2023-03-14T00:48:45;98627.69;;;19.09;41.16
18784;BME280;9520;50.954;6.968;2023-03-14T00:49:10;98614.31;;;19.09;41.20
18784;BME280;9520;50.954;6.968;2023-03-14T00:49:33;98628.16;;;19.14;41.01
18784;BME280;9520;50.954;6.968;2023-03-14T00:49:55;98630.66;;;19.15;40.76
18784;BME280;9520;50.954;6.968;2023-03-14T00:50:17;98631.63;;;19.14;40.98
18784;BME280;9520;50.954;6.968;2023-03-14T00:50:40;98624.75;;;19.12;41.12
18784;BME280;9520;50.954;6.968;2023-03-14T00:51:03;98621.13;;;19.02;41.28
18784;BME280;9520;50.954;6.968;2023-03-14T00:51:26;98631.81;;;19.02;41.21
18784;BME280;9520;50.954;6.968;2023-03-14T00:51:49;98625.75;;;18.99;41.24
18784;BME280;9520;50.954;6.968;2023-03-14T00:52:12;98628.41;;;18.99;41.19
18784;BME280;9520;50.954;6.968;2023-03-14T00:52:34;98626.84;;;18.97;41.09
18784;BME280;9520;50.954;6.968;2023-03-14T00:52:57;98631.81;;;19.02;41.33
18784;BME280;9520;50.954;6.968;2023-03-14T00:53:20;98628.88;;;19.05;41.10
18784;BME280;9520;50.954;6.968;2023-03-14T00:53:42;98617.50;;;19.03;41.06
18784;BME280;9520;50.954;6.968;2023-03-14T00:54:04;98628.19;;;19.03;41.26
18784;BME280;9520;50.954;6.968;2023-03-14T00:54:27;98618.19;;;19.05;41.13
18784;BME280;9520;50.954;6.968;2023-03-14T00:54:48;98622.94;;;19.01;41.19
18784;BME280;9520;50.954;6.968;2023-03-14T00:55:10;98625.06;;;18.86;41.20
18784;BME280;9520;50.954;6.968;2023-03-14T00:55:36;98628.00;;;18.83;41.29
18784;BME280;9520;50.954;6.968;2023-03-14T00:56:02;98623.34;;;18.85;41.43
18784;BME280;9520;50.954;6.968;2023-03-14T00:56:25;98627.72;;;18.86;41.46
18784;BME280;9520;50.954;6.968;2023-03-14T00:56:47;98630.81;;;18.71;41.68
18784;BME280;9520;50.954;6.968;2023-03-14T00:57:09;98624.97;;;18.77;41.61
18784;BME280;9520;50.954;6.968;2023-03-14T00:57:31;98629.94;;;18.81;41.45
18784;BME280;9520;50.954;6.968;2023-03-14T00:57:55;98629.94;;;18.81;41.75
18784;BME280;9520;50.954;6.968;2023-03-14T00:58:17;98629.47;;;18.65;41.47
18784;BME280;9520;50.954;6.968;2023-03-14T00:58:40;98623.91;;;18.57;41.59
18784;BME280;9520;50.954;6.968;2023-03-14T00:59:01;98621.47;;;18.65;41.65
18784;BME280;9520;50.954;6.968;2023-03-14T00:59:24;98628.38;;;18.68;41.71
18784;BME280;9520;50.954;6.968;2023-03-14T00:59:45;98624.88;;;18.67;41.73
18784;BME280;9520;50.954;6.968;2023-03-14T01:00:08;98629.25;;;18.68;41.66
18784;BME280;9520;50.954;6.968;2023-03-14T01:00:37;98621.81;;;18.72;41.65
18784;BME280;9520;50.954;6.968;2023-03-14T01:00:58;98625.81;;;18.77;41.31
18784;BME280;9520;50.954;6.968;2023-03-14T01:01:20;98625.81;;;18.77;41.45
18784;BME280;9520;50.954;6.968;2023-03-14T01:01:42;98626.09;;;18.74;41.55
18784;BME280;9520;50.954;6.968;2023-03-14T01:02:06;98623.88;;;18.79;41.36
18784;BME280;9520;50.954;6.968;2023-03-14T01:02:28;98623.53;;;18.62;41.78
18784;BME280;9520;50.954;6.968;2023-03-14T01:02:50;98618.69;;;18.67;41.76
18784;BME280;9520;50.954;6.968;2023-03-14T01:03:14;98634.09;;;18.74;41.65
18784;BME280;9520;50.954;6.968;2023-03-14T01:03:37;98631.78;;;18.70;41.56
18784;BME280;9520;50.954;6.968;2023-03-14T01:03:58;98613.22;;;18.68;41.50
18784;BME280;9520;50.954;6.968;2023-03-14T01:04:20;98633.56;;;18.80;41.68
18784;BME280;9520;50.954;6.968;2023-03-14T01:04:49;98628.69;;;18.85;41.53
18784;BME280;9520;50.954;6.968;2023-03-14T01:05:16;98626.50;;;18.90;41.34
18784;BME280;9520;50.954;6.968;2023-03-14T01:05:38;98623.50;;;18.84;41.46
18784;BME280;9520;50.954;6.968;2023-03-14T01:06:07;98626.69;;;18.67;41.74
18784;BME280;9520;50.954;6.968;2023-03-14T01:06:31;98629.72;;;18.62;41.92
18784;BME280;9520;50.954;6.968;2023-03-14T01:06:54;98625.84;;;18.66;41.73
18784;BME280;9520;50.954;6.968;2023-03-14T01:07:16;98620.97;;;18.71;41.81
18784;BME280;9520;50.954;6.968;2023-03-14T01:07:38;98618.44;;;18.70;41.64
18784;BME280;9520;50.954;6.968;2023-03-14T01:07:59;98620.25;;;18.69;41.64
18784;BME280;9520;50.954;6.968;2023-03-14T01:08:21;98617.34;;;18.72;41.60
18784;BME280;9520;50.954;6.968;2023-03-14T01:08:45;98621.31;;;18.78;41.64
18784;BME280;9520;50.954;6.968;2023-03-14T01:09:06;98634.31;;;18.82;41.51
18784;BME280;9520;50.954;6.968;2023-03-14T01:09:28;98624.22;;;18.75;41.54
18784;BME280;9520;50.954;6.968;2023-03-14T01:09:51;98624.97;;;18.77;41.52
18784;BME280;9520;50.954;6.968;2023-03-14T01:10:14;98628.59;;;18.76;41.67
18784;BME280;9520;50.954;6.968;2023-03-14T01:10:38;98616.94;;;18.77;41.62
18784;BME280;9520;50.954;6.968;2023-03-14T01:11:05;98624.47;;;18.83;41.54
18784;BME280;9520;50.954;6.968;2023-03-14T01:11:29;98626.19;;;18.84;41.52
18784;BME280;9520;50.954;6.968;2023-03-14T01:11:52;98639.16;;;18.88;41.45
18784;BME280;9520;50.954;6.968;2023-03-14T01:12:13;98631.00;;;18.90;41.43
18784;BME280;9520;50.954;6.968;2023-03-14T01:12:36;98629.91;;;18.92;41.37
18784;BME280;9520;50.954;6.968;2023-03-14T01:13:03;98639.38;;;18.85;41.62
18784;BME280;9520;50.954;6.968;2023-03-14T01:13:26;98633.94;;;18.76;41.92
18784;BME280;9520;50.954;6.968;2023-03-14T01:13:49;98637.59;;;18.75;42.08
18784;BME280;9520;50.954;6.968;2023-03-14T01:14:11;98638.91;;;18.80;42.08
18784;BME280;9520;50.954;6.968;2023-03-14T01:14:33;98633.47;;;18.82;42.08
18784;BME280;9520;50.954;6.968;2023-03-14T01:14:55;98627.53;;;18.78;42.21
18784;BME280;9520;50.954;6.968;2023-03-14T01:15:19;98645.00;;;18.71;42.61
18784;BME280;9520;50.954;6.968;2023-03-14T01:15:40;98645.97;;;18.70;42.44
18784;BME280;9520;50.954;6.968;2023-03-14T01:16:07;98643.31;;;18.70;42.43
18784;BME280;9520;50.954;6.968;2023-03-14T01:16:33;98651.84;;;18.64;42.82
18784;BME280;9520;50.954;6.968;2023-03-14T01:16:55;98623.88;;;18.46;43.11
18784;BME280;9520;50.954;6.968;2023-03-14T01:17:22;98630.22;;;18.23;43.66
18784;BME280;9520;50.954;6.968;2023-03-14T01:17:44;98656.78;;;18.46;43.67
18784;BME280;9520;50.954;6.968;2023-03-14T01:18:06;98665.78;;;18.34;43.57
18784;BME280;9520;50.954;6.968;2023-03-14T01:18:29;98654.00;;;18.37;43.65
18784;BME280;9520;50.954;6.968;2023-03-14T01:18:51;98675.34;;;18.48;43.66
18784;BME280;9520;50.954;6.968;2023-03-14T01:19:13;98665.53;;;18.48;43.77
18784;BME280;9520;50.954;6.968;2023-03-14T01:19:35;98663.34;;;18.42;43.86
18784;BME280;9520;50.954;6.968;2023-03-14T01:19:57;98661.75;;;18.51;44.18
18784;BME280;9520;50.954;6.968;2023-03-14T01:20:19;98663.09;;;18.34;44.18
18784;BME280;9520;50.954;6.968;2023-03-14T01:20:41;98696.81;;;18.24;44.72
18784;BME280;9520;50.954;6.968;2023-03-14T01:21:03;98676.06;;;18.28;45.08
18784;BME280;9520;50.954;6.968;2023-03-14T01:21:28;98702.75;;;18.17;45.85
18784;BME280;9520;50.954;6.968;2023-03-14T01:21:50;98707.50;;;18.24;45.85
18784;BME280;9520;50.954;6.968;2023-03-14T01:22:11;98711.72;;;18.27;46.13
18784;BME280;9520;50.954;6.968;2023-03-14T01:22:34;98714.53;;;18.36;45.74
18784;BME280;9520;50.954;6.968;2023-03-14T01:22:56;98707.97;;;18.40;46.02
18784;BME280;9520;50.954;6.968;2023-03-14T01:23:17;98708.59;;;18.44;46.39
18784;BME280;9520;50.954;6.968;2023-03-14T01:23:39;98704.00;;;18.35;46.71
18784;BME280;9520;50.954;6.968;2023-03-14T01:24:03;98707.03;;;18.30;47.57
18784;BME280;9520;50.954;6.968;2023-03-14T01:24:27;98700.31;;;18.36;47.43
18784;BME280;9520;50.954;6.968;2023-03-14T01:24:49;98704.00;;;18.35;47.87
18784;BME280;9520;50.954;6.968;2023-03-14T01:25:15;98685.31;;;18.35;47.90
18784;BME280;9520;50.954;6.968;2023-03-14T01:25:40;98689.66;;;18.36;48.14
18784;BME280;9520;50.954;6.968;2023-03-14T01:26:03;98686.88;;;18.37;48.10
18784;BME280;9520;50.954;6.968;2023-03-14T01:26:26;98687.47;;;18.41;48.28
18784;BME280;9520;50.954;6.968;2023-03-14T01:26:48;98681.53;;;18.37;48.67
18784;BME280;9520;50.954;6.968;2023-03-14T01:27:11;98677.28;;;18.35;48.57
18784;BME280;9520;50.954;6.968;2023-03-14T01:27:34;98679.22;;;18.33;48.59
18784;BME280;9520;50.954;6.968;2023-03-14T01:27:55;98656.03;;;18.22;48.54
18784;BME280;9520;50.954;6.968;2023-03-14T01:28:17;98651.69;;;18.10;48.69
18784;BME280;9520;50.954;6.968;2023-03-14T01:28:40;98670.47;;;18.08;48.53
18784;BME280;9520;50.954;6.968;2023-03-14T01:29:02;98669.88;;;18.05;48.34
18784;BME280;9520;50.954;6.968;2023-03-14T01:29:25;98672.16;;;17.98;48.31
18784;BME280;9520;50.954;6.968;2023-03-14T01:29:48;98667.06;;;17.95;48.99
18784;BME280;9520;50.954;6.968;2023-03-14T01:30:11;98664.28;;;17.86;49.71
18784;BME280;9520;50.954;6.968;2023-03-14T01:30:33;98659.75;;;17.86;49.56
18784;BME280;9520;50.954;6.968;2023-03-14T01:30:55;98653.94;;;17.81;49.40
18784;BME280;9520;50.954;6.968;2023-03-14T01:31:16;98665.09;;;17.86;49.67
18784;BME280;9520;50.954;6.968;2023-03-14T01:31:39;98658.78;;;17.87;49.56
18784;BME280;9520;50.954;6.968;2023-03-14T01:32:03;98663.41;;;17.85;49.51
18784;BME280;9520;50.954;6.968;2023-03-14T01:32:24;98665.34;;;17.83;49.52
18784;BME280;9520;50.954;6.968;2023-03-14T01:32:47;98665.22;;;17.85;49.58
18784;BME280;9520;50.954;6.968;2023-03-14T01:33:09;98661.09;;;17.81;49.68
18784;BME280;9520;50.954;6.968;2023-03-14T01:33:35;98651.13;;;17.72;49.66
18784;BME280;9520;50.954;6.968;2023-03-14T01:33:57;98656.47;;;17.72;49.76
18784;BME280;9520;50.954;6.968;2023-03-14T01:34:18;98660.25;;;17.56;49.66
18784;BME280;9520;50.954;6.968;2023-03-14T01:34:41;98653.66;;;17.62;49.32
18784;BME280;9520;50.954;6.968;2023-03-14T01:35:04;98656.09;;;17.65;49.97
18784;BME280;9520;50.954;6.968;2023-03-14T01:35:26;98657.31;;;17.72;49.63
18784;BME280;9520;50.954;6.968;2023-03-14T01:35:50;98656.69;;;17.68;49.74
18784;BME280;9520;50.954;6.968;2023-03-14T01:36:12;98656.59;;;17.70;50.16
18784;BME280;9520;50.954;6.968;2023-03-14T01:36:36;98645.44;;;17.76;50.35
18784;BME280;9520;50.954;6.968;2023-03-14T01:36:58;98654.53;;;17.74;50.48
18784;BME280;9520;50.954;6.968;2023-03-14T01:37:20;98650.06;;;17.74;49.75
18784;BME280;9520;50.954;6.968;2023-03-14T01:37:42;98652.63;;;17.76;49.88
18784;BME280;9520;50.954;6.968;2023-03-14T01:38:10;98651.25;;;17.81;50.04
18784;BME280;9520;50.954;6.968;2023-03-14T01:38:33;98648.84;;;17.78;49.93
18784;BME280;9520;50.954;6.968;2023-03-14T01:39:25;98646.06;;;17.80;49.83
18784;BME280;9520;50.954;6.968;2023-03-14T01:39:50;98650.66;;;17.78;49.80
18784;BME280;9520;50.954;6.968;2023-03-14T01:40:14;98650.44;;;17.57;49.35
18784;BME280;9520;50.954;6.968;2023-03-14T01:40:42;98650.81;;;17.52;49.68
18784;BME280;9520;50.954;6.968;2023-03-14T01:41:05;98643.41;;;17.45;49.50
18784;BME280;9520;50.954;6.968;2023-03-14T01:41:27;98647.41;;;17.50;49.49
18784;BME280;9520;50.954;6.968;2023-03-14T01:41:52;98649.94;;;17.41;49.66
18784;BME280;9520;50.954;6.968;2023-03-14T01:42:14;98634.41;;;17.35;49.92
18784;BME280;9520;50.954;6.968;2023-03-14T01:42:36;98648.34;;;17.38;49.79
18784;BME280;9520;50.954;6.968;2023-03-14T01:43:06;98653.75;;;17.25;49.90
18784;BME280;9520;50.954;6.968;2023-03-14T01:43:29;98643.28;;;17.22;50.02
18784;BME280;9520;50.954;6.968;2023-03-14T01:43:51;98625.69;;;17.09;50.40
18784;BME280;9520;50.954;6.968;2023-03-14T01:44:13;98646.47;;;17.27;50.39
18784;BME280;9520;50.954;6.968;2023-03-14T01:44:49;98647.47;;;17.38;50.00
18784;BME280;9520;50.954;6.968;2023-03-14T01:46:19;98648.44;;;17.37;49.86
18784;BME280;9520;50.954;6.968;2023-03-14T01:46:45;98632.19;;;17.28;49.81
18784;BME280;9520;50.954;6.968;2023-03-14T01:47:08;98641.44;;;17.36;49.87
18784;BME280;9520;50.954;6.968;2023-03-14T01:47:30;98651.00;;;17.38;49.54
18784;BME280;9520;50.954;6.968;2023-03-14T01:47:52;98650.84;;;17.28;50.30
18784;BME280;9520;50.954;6.968;2023-03-14T01:48:14;98637.00;;;17.23;50.30
18784;BME280;9520;50.954;6.968;2023-03-14T01:48:40;98633.94;;;17.17;49.88
18784;BME280;9520;50.954;6.968;2023-03-14T01:49:19;98637.75;;;17.25;49.66
18784;BME280;9520;50.954;6.968;2023-03-14T01:49:52;98642.50;;;17.33;49.98
18784;BME280;9520;50.954;6.968;2023-03-14T01:50:16;98642.91;;;17.40;50.27
18784;BME280;9520;50.954;6.968;2023-03-14T01:50:37;98646.16;;;17.43;49.80
18784;BME280;9520;50.954;6.968;2023-03-14T01:51:00;98640.50;;;17.48;49.77
18784;BME280;9520;50.954;6.968;2023-03-14T01:51:25;98650.09;;;17.50;50.02
18784;BME280;9520;50.954;6.968;2023-03-14T01:51:52;98643.03;;;17.49;49.99
18784;BME280;9520;50.954;6.968;2023-03-14T01:52:19;98647.28;;;17.52;50.89
18784;BME280;9520;50.954;6.968;2023-03-14T01:52:44;98651.59;;;17.42;50.94
18784;BME280;9520;50.954;6.968;2023-03-14T01:53:15;98644.25;;;17.45;49.94
18784;BME280;9520;50.954;6.968;2023-03-14T01:53:37;98645.81;;;17.48;49.58
18784;BME280;9520;50.954;6.968;2023-03-14T01:54:05;98650.19;;;17.49;49.58
18784;BME280;9520;50.954;6.968;2023-03-14T01:54:32;98647.03;;;17.44;50.05
18784;BME280;9520;50.954;6.968;2023-03-14T01:54:58;98640.56;;;17.35;49.31
18784;BME280;9520;50.954;6.968;2023-03-14T01:55:24;98641.09;;;17.40;49.95
18784;BME280;9520;50.954;6.968;2023-03-14T01:55:47;98638.91;;;17.45;49.72
18784;BME280;9520;50.954;6.968;2023-03-14T01:56:11;98640.13;;;17.41;49.46
18784;BME280;9520;50.954;6.968;2023-03-14T01:56:35;98636.38;;;17.44;49.13
18784;BME280;9520;50.954;6.968;2023-03-14T01:57:04;98634.44;;;17.46;49.23
18784;BME280;9520;50.954;6.968;2023-03-14T01:57:29;98638.47;;;17.51;49.20
18784;BME280;9520;50.954;6.968;2023-03-14T01:57:54;98636.75;;;17.50;49.10
18784;BME280;9520;50.954;6.968;2023-03-14T01:58:18;98641.84;;;17.53;49.32
18784;BME280;9520;50.954;6.968;2023-03-14T01:58:42;98630.13;;;17.56;49.20
18784;BME280;9520;50.954;6.968;2023-03-14T01:59:08;98643.78;;;17.51;49.23
18784;BME280;9520;50.954;6.968;2023-03-14T01:59:32;98641.66;;;17.33;48.82
18784;BME280;9520;50.954;6.968;2023-03-14T01:59:58;98627.25;;;17.35;48.99
18784;BME280;9520;50.954;6.968;2023-03-14T02:00:22;98620.63;;;17.41;49.19
18784;BME280;9520;50.954;6.968;2023-03-14T02:00:44;98614.78;;;17.47;49.35
18784;BME280;9520;50.954;6.968;2023-03-14T02:01:08;98618.09;;;17.50;50.22
18784;BME280;9520;50.954;6.968;2023-03-14T02:01:31;98618.44;;;17.46;49.60
18784;BME280;9520;50.954;6.968;2023-03-14T02:01:54;98610.25;;;17.25;50.20
18784;BME280;9520;50.954;6.968;2023-03-14T02:02:17;98609.06;;;17.29;49.75
18784;BME280;9520;50.954;6.968;2023-03-14T02:02:41;98607.00;;;17.33;49.17
18784;BME280;9520;50.954;6.968;2023-03-14T02:03:08;98606.44;;;17.40;48.81
18784;BME280;9520;50.954;6.968;2023-03-14T02:03:38;98601.09;;;17.40;48.72
18784;BME280;9520;50.954;6.968;2023-03-14T02:04:04;98612.63;;;17.41;48.60
18784;BME280;9520;50.954;6.968;2023-03-14T02:04:30;98608.31;;;17.27;49.27
18784;BME280;9520;50.954;6.968;2023-03-14T02:04:55;98609.66;;;17.21;49.28
18784;BME280;9520;50.954;6.968;2023-03-14T02:05:26;98611.47;;;17.32;49.08
18784;BME280;9520;50.954;6.968;2023-03-14T02:06:06;98610.88;;;17.28;49.00
18784;BME280;9520;50.954;6.968;2023-03-14T02:06:40;98614.41;;;17.05;49.07